createdAt,value
2024-04-16T00:00:44.631Z,94784.81
2024-04-16T00:03:16.862Z,94774.44
2024-04-16T00:05:49.029Z,94768.97
2024-04-16T00:08:22.491Z,94770.31
2024-04-16T00:10:54.823Z,94764.56
2024-04-16T00:13:26.863Z,94764.84
2024-04-16T00:16:00.075Z,94754.81
2024-04-16T00:18:32.250Z,94767.50
2024-04-16T00:21:04.564Z,94762.16
2024-04-16T00:23:36.818Z,94761.69
2024-04-16T00:26:09.002Z,94781.25
2024-04-16T00:28:41.206Z,94780.56
2024-04-16T00:31:13.397Z,94773.50
2024-04-16T00:33:45.618Z,94770.34
2024-04-16T00:36:17.795Z,94765.41
2024-04-16T00:38:49.911Z,94763.78
2024-04-16T00:41:22.119Z,94772.47
2024-04-16T00:43:54.347Z,94763.13
2024-04-16T00:46:26.623Z,94753.22
2024-04-16T00:48:59.043Z,94742.00
2024-04-16T00:51:31.485Z,94747.09
2024-04-16T00:54:04.135Z,94730.75
2024-04-16T00:56:37.962Z,94727.88
2024-04-16T00:59:10.173Z,94738.75
2024-04-16T01:01:42.342Z,94733.34
2024-04-16T01:04:14.568Z,94735.97
2024-04-16T01:06:46.934Z,94724.75
2024-04-16T01:09:19.332Z,94741.75
2024-04-16T01:11:51.803Z,94732.22
2024-04-16T01:14:23.744Z,94728.00
2024-04-16T01:16:56.158Z,94725.09
2024-04-16T01:19:28.880Z,94724.78
2024-04-16T01:22:01.111Z,94724.00
2024-04-16T01:24:33.810Z,94723.31
2024-04-16T01:27:06.167Z,94731.97
2024-04-16T01:29:40.659Z,94730.69
2024-04-16T01:32:15.120Z,94742.47
2024-04-16T01:34:47.355Z,94735.88
2024-04-16T01:37:19.562Z,94741.44
2024-04-16T01:39:51.794Z,94742.16
2024-04-16T01:42:24.027Z,94750.00
2024-04-16T01:44:57.650Z,94745.69
2024-04-16T01:47:29.968Z,94739.81
2024-04-16T01:50:02.017Z,94741.94
2024-04-16T01:52:34.236Z,94741.81
2024-04-16T01:55:06.530Z,94732.47
2024-04-16T01:57:40.815Z,94724.25
2024-04-16T02:00:13.169Z,94725.28
2024-04-16T02:02:46.258Z,94725.69
2024-04-16T02:05:18.543Z,94725.53
2024-04-16T02:07:50.730Z,94737.06
2024-04-16T02:10:22.985Z,94740.09
2024-04-16T02:12:55.177Z,94738.91
2024-04-16T02:15:27.339Z,94729.22
2024-04-16T02:17:59.591Z,94720.91
2024-04-16T02:20:33.047Z,94722.81
2024-04-16T02:23:06.081Z,94735.41
2024-04-16T02:25:38.309Z,94736.06
2024-04-16T02:28:11.727Z,94724.75
2024-04-16T02:30:44.629Z,94730.13
2024-04-16T02:33:17.735Z,94735.00
2024-04-16T02:35:49.962Z,94742.78
2024-04-16T02:38:22.478Z,94744.59
2024-04-16T02:40:54.724Z,94738.47
2024-04-16T02:43:26.922Z,94758.16
2024-04-16T02:45:59.304Z,94775.00
2024-04-16T02:48:31.344Z,94776.53
2024-04-16T02:51:04.148Z,94770.63
2024-04-16T02:53:36.375Z,94773.13
2024-04-16T02:56:08.795Z,94765.75
2024-04-16T02:58:41.043Z,94776.81
2024-04-16T03:01:13.363Z,94762.41
2024-04-16T03:03:45.404Z,94787.31
2024-04-16T03:06:17.588Z,94770.25
2024-04-16T03:08:52.737Z,94783.19
2024-04-16T03:11:24.976Z,94779.16
2024-04-16T03:13:57.132Z,94781.13
2024-04-16T03:16:29.390Z,94767.41
2024-04-16T03:19:01.706Z,94769.97
2024-04-16T03:21:33.889Z,94773.69
2024-04-16T03:24:06.171Z,94780.09
2024-04-16T03:26:38.370Z,94774.75
2024-04-16T03:29:11.028Z,94783.22
2024-04-16T03:31:43.517Z,94772.72
2024-04-16T03:34:15.777Z,94770.41
2024-04-16T03:36:48.199Z,94767.41
2024-04-16T03:39:20.108Z,94768.22
2024-04-16T03:41:52.415Z,94773.66
2024-04-16T03:44:24.822Z,94772.91
2024-04-16T03:46:58.100Z,94766.97
2024-04-16T03:49:30.305Z,94762.75
2024-04-16T03:52:02.505Z,94769.50
2024-04-16T03:54:34.732Z,94769.16
2024-04-16T03:57:06.917Z,94774.75
2024-04-16T03:59:40.188Z,94773.88
2024-04-16T04:02:13.425Z,94781.06
2024-04-16T04:04:45.792Z,94776.28
2024-04-16T04:07:18.473Z,94782.16
2024-04-16T04:09:50.764Z,94798.22
2024-04-16T04:12:22.904Z,94780.66
2024-04-16T04:14:55.069Z,94780.50
2024-04-16T04:17:27.296Z,94781.28
2024-04-16T04:19:59.490Z,94789.63
2024-04-16T04:22:31.689Z,94785.19
2024-04-16T04:25:03.953Z,94780.09
2024-04-16T04:27:36.142Z,94775.31
2024-04-16T04:30:09.488Z,94777.03
2024-04-16T04:32:41.674Z,94773.28
2024-04-16T04:35:13.917Z,94773.75
2024-04-16T04:37:46.170Z,94782.72
2024-04-16T04:40:18.392Z,94779.69
2024-04-16T04:42:51.387Z,94778.75
2024-04-16T04:45:23.545Z,94779.59
2024-04-16T04:47:55.883Z,94770.00
2024-04-16T04:50:27.942Z,94781.69
2024-04-16T04:53:01.952Z,94777.63
2024-04-16T04:55:34.184Z,94774.25
2024-04-16T04:58:06.612Z,94772.75
2024-04-16T05:00:39.328Z,94771.75
2024-04-16T05:03:11.502Z,94789.53
2024-04-16T05:05:46.894Z,94787.34
2024-04-16T05:08:19.635Z,94789.75
2024-04-16T05:10:53.385Z,94781.06
2024-04-16T05:13:25.694Z,94789.00
2024-04-16T05:15:59.148Z,94790.81
2024-04-16T05:18:31.632Z,94795.75
2024-04-16T05:21:04.034Z,94788.59
2024-04-16T05:23:37.091Z,94795.47
2024-04-16T05:26:09.753Z,94795.00
2024-04-16T05:28:41.958Z,94784.78
2024-04-16T05:31:14.675Z,94788.75
2024-04-16T05:33:46.928Z,94781.44
2024-04-16T05:36:19.244Z,94785.47
2024-04-16T05:38:51.448Z,94787.31
2024-04-16T05:41:23.643Z,94784.91
2024-04-16T05:43:55.804Z,94787.16
2024-04-16T05:46:28.129Z,94801.09
2024-04-16T05:49:00.587Z,94796.88
2024-04-16T05:51:32.517Z,94794.97
2024-04-16T05:54:07.750Z,94789.34
2024-04-16T05:56:40.622Z,94789.28
2024-04-16T05:59:13.073Z,94797.84
2024-04-16T06:01:45.178Z,94808.25
2024-04-16T06:04:17.902Z,94798.03
2024-04-16T06:06:50.106Z,94805.00
2024-04-16T06:09:22.303Z,94814.47
2024-04-16T06:11:54.581Z,94799.66
2024-04-16T06:14:26.720Z,94802.44
2024-04-16T06:16:59.013Z,94808.00
2024-04-16T06:19:31.353Z,94805.41
2024-04-16T06:22:03.750Z,94818.59
2024-04-16T06:24:37.009Z,94815.88
2024-04-16T06:27:09.375Z,94801.19
2024-04-16T06:29:41.502Z,94805.66
2024-04-16T06:32:13.768Z,94804.44
2024-04-16T06:34:45.996Z,94823.13
2024-04-16T06:37:18.186Z,94808.81
2024-04-16T06:39:50.408Z,94802.78
2024-04-16T06:42:22.799Z,94806.81
2024-04-16T06:44:54.714Z,94811.28
2024-04-16T06:47:28.249Z,94812.47
2024-04-16T06:50:00.581Z,94818.66
2024-04-16T06:52:33.716Z,94813.00
2024-04-16T06:55:06.650Z,94803.53
2024-04-16T06:57:38.880Z,94808.13
2024-04-16T07:00:11.791Z,94802.13
2024-04-16T07:02:44.119Z,94809.78
2024-04-16T07:05:16.164Z,94807.38
2024-04-16T07:07:48.671Z,94804.44
2024-04-16T07:10:20.979Z,94813.97
2024-04-16T07:12:53.324Z,94810.41
2024-04-16T07:15:25.516Z,94805.09
2024-04-16T07:17:58.400Z,94809.13
2024-04-16T07:20:30.797Z,94805.28
2024-04-16T07:23:03.275Z,94812.84
2024-04-16T07:25:35.545Z,94814.06
2024-04-16T07:28:07.838Z,94817.06
2024-04-16T07:30:40.026Z,94815.66
2024-04-16T07:33:12.473Z,94825.84
2024-04-16T07:35:48.026Z,94830.63
2024-04-16T07:38:21.674Z,94849.31
2024-04-16T07:40:57.773Z,94814.09
2024-04-16T07:43:29.941Z,94818.78
2024-04-16T07:46:02.456Z,94823.94
2024-04-16T07:48:34.621Z,94820.53
2024-04-16T07:51:07.536Z,94822.84
2024-04-16T07:53:39.723Z,94815.09
2024-04-16T07:56:12.249Z,94814.84
2024-04-16T07:58:45.131Z,94813.63
2024-04-16T08:01:18.240Z,94813.94
2024-04-16T08:03:50.862Z,94809.19
2024-04-16T08:06:23.061Z,94804.59
2024-04-16T08:08:57.633Z,94799.66
2024-04-16T08:11:30.260Z,94801.47
2024-04-16T08:14:04.537Z,94792.69
2024-04-16T08:16:37.942Z,94781.06
2024-04-16T08:19:09.989Z,94773.50
2024-04-16T08:21:42.351Z,94773.94
2024-04-16T08:24:15.127Z,94770.78
2024-04-16T08:26:47.341Z,94763.34
2024-04-16T08:29:19.763Z,94775.38
2024-04-16T08:31:51.809Z,94767.34
2024-04-16T08:34:24.299Z,94759.22
2024-04-16T08:36:56.274Z,94765.28
2024-04-16T08:39:28.438Z,94757.06
2024-04-16T08:42:05.303Z,94751.38
2024-04-16T08:44:38.415Z,94760.00
2024-04-16T08:47:11.991Z,94757.41
2024-04-16T08:49:46.368Z,94761.06
2024-04-16T08:52:20.925Z,94755.69
2024-04-16T08:54:54.781Z,94741.78
2024-04-16T08:57:29.747Z,94759.31
2024-04-16T09:00:02.900Z,94757.91
2024-04-16T09:02:36.589Z,94761.03
2024-04-16T09:05:08.882Z,94751.63
2024-04-16T09:07:44.086Z,94767.28
2024-04-16T09:10:23.743Z,94770.53
2024-04-16T09:12:56.181Z,94783.78
2024-04-16T09:15:28.366Z,94797.38
2024-04-16T09:18:00.738Z,94791.72
2024-04-16T09:20:33.029Z,94784.53
2024-04-16T09:23:06.993Z,94783.88
2024-04-16T09:25:44.237Z,94796.38
2024-04-16T09:28:20.055Z,94789.78
2024-04-16T09:30:58.921Z,94791.66
2024-04-16T09:33:38.191Z,94788.81
2024-04-16T09:36:15.483Z,94784.97
2024-04-16T09:38:49.064Z,94790.22
2024-04-16T09:41:21.827Z,94768.13
2024-04-16T09:43:54.567Z,94778.72
2024-04-16T09:46:28.457Z,94793.38
2024-04-16T09:49:01.021Z,94774.50
2024-04-16T09:51:33.625Z,94778.69
2024-04-16T09:54:07.637Z,94772.16
2024-04-16T09:56:40.295Z,94753.56
2024-04-16T09:59:14.133Z,94748.22
2024-04-16T10:01:46.809Z,94746.56
2024-04-16T10:04:19.416Z,94729.59
2024-04-16T10:06:51.751Z,94719.94
2024-04-16T10:09:24.110Z,94731.28
2024-04-16T10:11:57.133Z,94726.72
2024-04-16T10:14:30.793Z,94722.63
2024-04-16T10:17:03.059Z,94728.38
2024-04-16T10:19:35.283Z,94731.84
2024-04-16T10:22:16.046Z,94697.16
2024-04-16T10:24:55.403Z,94696.50
2024-04-16T10:27:27.569Z,94688.88
2024-04-16T10:30:12.240Z,94698.41
2024-04-16T10:32:49.115Z,94700.28
2024-04-16T10:35:22.420Z,94712.31
2024-04-16T10:37:54.559Z,94708.69
2024-04-16T10:40:32.180Z,94721.56
2024-04-16T10:43:09.541Z,94707.09
2024-04-16T10:45:46.201Z,94698.66
2024-04-16T10:48:22.677Z,94705.97
2024-04-16T10:50:54.902Z,94694.94
2024-04-16T10:53:27.150Z,94696.81
2024-04-16T10:55:59.418Z,94687.00
2024-04-16T10:58:35.167Z,94670.88
2024-04-16T11:01:08.024Z,94690.72
2024-04-16T11:03:41.835Z,94676.66
2024-04-16T11:06:14.082Z,94687.75
2024-04-16T11:08:46.257Z,94678.22
2024-04-16T11:11:18.673Z,94694.22
2024-04-16T11:13:50.840Z,94683.16
2024-04-16T11:16:23.664Z,94681.97
2024-04-16T11:18:58.403Z,94672.47
2024-04-16T11:21:35.830Z,94694.97
2024-04-16T11:24:09.239Z,94675.53
2024-04-16T11:26:42.178Z,94668.63
2024-04-16T11:29:19.449Z,94641.59
2024-04-16T11:31:51.767Z,94633.13
2024-04-16T11:34:25.545Z,94631.97
2024-04-16T11:36:57.908Z,94653.34
2024-04-16T11:39:30.803Z,94644.88
2024-04-16T11:42:03.010Z,94637.03
2024-04-16T11:44:35.971Z,94626.94
2024-04-16T11:47:11.807Z,94643.97
2024-04-16T11:49:44.056Z,94633.19
2024-04-16T11:52:17.304Z,94626.72
2024-04-16T11:54:49.455Z,94626.75
2024-04-16T11:57:21.661Z,94628.66
2024-04-16T11:59:57.425Z,94624.16
2024-04-16T12:02:30.542Z,94619.19
2024-04-16T12:05:02.827Z,94616.41
2024-04-16T12:07:34.958Z,94615.19
2024-04-16T12:10:07.637Z,94603.72
2024-04-16T12:12:39.840Z,94600.94
2024-04-16T12:15:11.982Z,94586.59
2024-04-16T12:17:44.548Z,94587.59
2024-04-16T12:20:16.873Z,94572.97
2024-04-16T12:22:48.994Z,94574.38
2024-04-16T12:25:21.235Z,94585.28
2024-04-16T12:27:54.765Z,94565.59
2024-04-16T12:30:26.913Z,94574.09
2024-04-16T12:33:10.594Z,94557.81
2024-04-16T12:35:47.611Z,94562.28
2024-04-16T12:38:19.576Z,94541.88
2024-04-16T12:40:52.039Z,94563.19
2024-04-16T12:43:24.288Z,94538.81
2024-04-16T12:46:00.990Z,94539.44
2024-04-16T12:48:33.375Z,94538.97
2024-04-16T12:51:05.706Z,94532.31
2024-04-16T12:53:38.157Z,94511.25
2024-04-16T12:56:13.129Z,94503.69
2024-04-16T12:58:45.457Z,94515.25
2024-04-16T13:01:17.616Z,94515.88
2024-04-16T13:03:49.920Z,94518.13
2024-04-16T13:06:21.839Z,94492.91
2024-04-16T13:08:54.314Z,94497.56
2024-04-16T13:11:26.656Z,94520.22
2024-04-16T13:13:59.849Z,94519.00
2024-04-16T13:16:36.058Z,94503.31
2024-04-16T13:19:09.121Z,94497.50
2024-04-16T13:21:41.301Z,94480.28
2024-04-16T13:24:16.614Z,94490.13
2024-04-16T13:26:48.774Z,94468.31
2024-04-16T13:29:24.304Z,94479.66
2024-04-16T13:31:57.091Z,94441.25
2024-04-16T13:34:29.353Z,94467.13
2024-04-16T13:37:01.555Z,94452.03
2024-04-16T13:39:33.854Z,94441.84
2024-04-16T13:42:06.929Z,94446.66
2024-04-16T13:44:39.265Z,94457.38
2024-04-16T13:47:11.212Z,94453.59
2024-04-16T13:49:43.427Z,94452.66
2024-04-16T13:52:15.618Z,94470.31
2024-04-16T13:54:47.818Z,94449.84
2024-04-16T13:57:19.970Z,94439.06
2024-04-16T13:59:53.335Z,94436.00
2024-04-16T14:02:25.658Z,94434.19
2024-04-16T14:04:58.088Z,94433.13
2024-04-16T14:07:30.397Z,94436.53
2024-04-16T14:10:02.650Z,94431.34
2024-04-16T14:12:34.666Z,94441.03
2024-04-16T14:15:08.786Z,94424.78
2024-04-16T14:17:42.720Z,94439.75
2024-04-16T14:20:15.104Z,94431.88
2024-04-16T14:22:47.039Z,94435.09
2024-04-16T14:25:19.311Z,94422.63
2024-04-16T14:27:51.227Z,94424.50
2024-04-16T14:30:23.389Z,94417.41
2024-04-16T14:32:55.421Z,94409.38
2024-04-16T14:35:27.674Z,94420.31
2024-04-16T14:37:59.610Z,94415.06
2024-04-16T14:40:31.909Z,94413.78
2024-04-16T14:43:04.106Z,94413.84
2024-04-16T14:45:36.303Z,94400.22
2024-04-16T14:48:08.842Z,94398.56
2024-04-16T14:50:45.191Z,94417.13
2024-04-16T14:53:19.648Z,94406.22
2024-04-16T14:55:52.421Z,94420.34
2024-04-16T14:58:24.704Z,94436.22
2024-04-16T15:00:57.220Z,94434.19
2024-04-16T15:03:31.292Z,94409.91
2024-04-16T15:06:03.547Z,94425.78
2024-04-16T15:08:35.699Z,94394.84
2024-04-16T15:11:07.723Z,94403.91
2024-04-16T15:13:41.508Z,94423.09
2024-04-16T15:16:13.676Z,94408.84
2024-04-16T15:18:45.822Z,94398.88
2024-04-16T15:21:18.008Z,94406.75
2024-04-16T15:23:50.193Z,94392.75
2024-04-16T15:26:23.176Z,94390.47
2024-04-16T15:28:55.368Z,94398.66
2024-04-16T15:31:27.649Z,94402.94
2024-04-16T15:33:59.815Z,94399.41
2024-04-16T15:36:31.969Z,94413.69
2024-04-16T15:39:04.261Z,94421.47
2024-04-16T15:41:36.530Z,94423.63
2024-04-16T15:44:08.697Z,94426.44
2024-04-16T15:46:40.960Z,94421.41
2024-04-16T15:49:13.200Z,94420.91
2024-04-16T15:51:45.379Z,94398.72
2024-04-16T15:54:17.576Z,94426.78
2024-04-16T15:56:49.788Z,94417.31
2024-04-16T15:59:21.998Z,94419.50
2024-04-16T16:01:54.262Z,94444.53
2024-04-16T16:04:26.537Z,94425.13
2024-04-16T16:06:58.720Z,94425.94
2024-04-16T16:09:31.597Z,94421.88
2024-04-16T16:12:03.955Z,94428.91
2024-04-16T16:14:36.101Z,94426.91
2024-04-16T16:17:08.439Z,94432.75
2024-04-16T16:19:40.607Z,94440.63
2024-04-16T16:22:20.490Z,94438.94
2024-04-16T16:24:52.737Z,94434.78
2024-04-16T16:27:24.670Z,94450.53
2024-04-16T16:29:56.797Z,94432.09
2024-04-16T16:32:29.187Z,94440.72
2024-04-16T16:35:06.148Z,94435.78
2024-04-16T16:37:38.632Z,94436.19
2024-04-16T16:40:11.489Z,94431.88
2024-04-16T16:42:43.718Z,94433.84
2024-04-16T16:45:15.987Z,94431.56
2024-04-16T16:47:48.091Z,94420.13
2024-04-16T16:50:20.270Z,94432.22
2024-04-16T16:52:52.651Z,94430.47
2024-04-16T16:55:24.600Z,94421.38
2024-04-16T16:57:58.957Z,94420.94
2024-04-16T17:00:31.138Z,94427.50
2024-04-16T17:03:03.537Z,94422.97
2024-04-16T17:05:36.830Z,94408.31
2024-04-16T17:08:09.026Z,94414.16
2024-04-16T17:10:41.256Z,94410.81
2024-04-16T17:13:13.648Z,94409.69
2024-04-16T17:15:45.974Z,94413.16
2024-04-16T17:18:18.057Z,94411.16
2024-04-16T17:20:50.278Z,94407.81
2024-04-16T17:23:22.909Z,94412.28
2024-04-16T17:25:58.069Z,94407.13
2024-04-16T17:28:30.382Z,94391.56
2024-04-16T17:31:04.273Z,94411.41
2024-04-16T17:33:36.548Z,94410.19
2024-04-16T17:36:08.969Z,94421.56
2024-04-16T17:38:41.478Z,94420.88
2024-04-16T17:41:13.662Z,94424.31
2024-04-16T17:43:46.015Z,94428.09
2024-04-16T17:46:18.551Z,94430.84
2024-04-16T17:48:50.777Z,94435.06
2024-04-16T17:51:25.217Z,94438.81
2024-04-16T17:53:57.478Z,94440.69
2024-04-16T17:56:29.635Z,94452.88
2024-04-16T17:59:02.006Z,94449.44
2024-04-16T18:01:35.113Z,94452.53
2024-04-16T18:04:10.422Z,94459.78
2024-04-16T18:06:44.494Z,94463.22
2024-04-16T18:09:16.806Z,94462.84
2024-04-16T18:11:48.821Z,94461.34
2024-04-16T18:14:21.063Z,94449.13
2024-04-16T18:16:53.313Z,94448.00
2024-04-16T18:19:25.562Z,94449.88
2024-04-16T18:21:57.703Z,94454.44
2024-04-16T18:24:29.930Z,94459.03
2024-04-16T18:27:02.129Z,94473.84
2024-04-16T18:29:34.265Z,94456.38
2024-04-16T18:32:06.632Z,94454.53
2024-04-16T18:34:39.614Z,94465.88
2024-04-16T18:37:12.014Z,94484.16
2024-04-16T18:39:44.078Z,94468.56
2024-04-16T18:42:17.487Z,94470.44
2024-04-16T18:44:49.968Z,94482.25
2024-04-16T18:47:23.177Z,94470.47
2024-04-16T18:49:56.321Z,94478.47
2024-04-16T18:52:29.193Z,94476.53
2024-04-16T18:55:02.963Z,94476.16
2024-04-16T18:57:35.226Z,94496.72
2024-04-16T19:00:07.979Z,94477.31
2024-04-16T19:02:41.950Z,94478.84
2024-04-16T19:05:16.931Z,94486.09
2024-04-16T19:07:49.126Z,94488.75
2024-04-16T19:10:21.948Z,94502.03
2024-04-16T19:12:55.982Z,94495.19
2024-04-16T19:15:30.348Z,94498.97
2024-04-16T19:18:02.538Z,94507.72
2024-04-16T19:20:36.200Z,94508.84
2024-04-16T19:23:08.507Z,94511.47
2024-04-16T19:25:40.781Z,94512.97
2024-04-16T19:28:12.944Z,94522.47
2024-04-16T19:30:45.306Z,94521.28
2024-04-16T19:33:17.362Z,94521.78
2024-04-16T19:35:49.702Z,94524.41
2024-04-16T19:38:23.256Z,94519.84
2024-04-16T19:40:55.459Z,94525.16
2024-04-16T19:43:27.743Z,94536.53
2024-04-16T19:46:00.114Z,94528.91
2024-04-16T19:48:32.384Z,94534.22
2024-04-16T19:51:04.654Z,94541.03
2024-04-16T19:53:37.006Z,94540.38
2024-04-16T19:56:09.300Z,94540.63
2024-04-16T19:58:41.264Z,94542.16
2024-04-16T20:01:13.471Z,94545.94
2024-04-16T20:03:47.338Z,94540.22
2024-04-16T20:06:20.682Z,94543.63
2024-04-16T20:08:57.301Z,94538.69
2024-04-16T20:11:29.581Z,94540.25
2024-04-16T20:14:01.888Z,94553.84
2024-04-16T20:16:34.132Z,94547.03
2024-04-16T20:19:07.742Z,94546.59
2024-04-16T20:21:40.186Z,94550.69
2024-04-16T20:24:12.195Z,94551.94
2024-04-16T20:26:44.436Z,94536.38
2024-04-16T20:29:17.603Z,94540.38
2024-04-16T20:31:49.965Z,94537.78
2024-04-16T20:34:23.439Z,94530.66
2024-04-16T20:36:56.679Z,94536.38
2024-04-16T20:39:28.862Z,94522.38
2024-04-16T20:42:01.016Z,94522.75
2024-04-16T20:44:33.155Z,94521.19
2024-04-16T20:47:05.523Z,94507.88
2024-04-16T20:49:37.499Z,94508.25
2024-04-16T20:52:09.738Z,94510.75
2024-04-16T20:54:41.846Z,94513.56
2024-04-16T20:57:14.100Z,94499.34
2024-04-16T20:59:46.777Z,94514.97
2024-04-16T21:02:18.949Z,94512.66
2024-04-16T21:04:51.152Z,94519.13
2024-04-16T21:07:23.450Z,94519.47
2024-04-16T21:09:55.991Z,94530.25
2024-04-16T21:12:28.171Z,94536.53
2024-04-16T21:15:00.329Z,94526.50
2024-04-16T21:17:32.586Z,94523.06
2024-04-16T21:20:05.123Z,94521.66
2024-04-16T21:22:37.188Z,94536.81
2024-04-16T21:25:09.450Z,94526.09
2024-04-16T21:27:41.768Z,94529.22
2024-04-16T21:30:13.814Z,94531.47
2024-04-16T21:32:46.068Z,94538.56
2024-04-16T21:35:18.407Z,94536.19
2024-04-16T21:37:50.658Z,94527.19
2024-04-16T21:40:22.836Z,94524.25
2024-04-16T21:42:55.019Z,94524.69
2024-04-16T21:45:27.165Z,94525.22
2024-04-16T21:47:59.602Z,94521.38
2024-04-16T21:50:33.946Z,94522.97
2024-04-16T21:53:07.194Z,94516.09
2024-04-16T21:55:39.708Z,94511.41
2024-04-16T21:58:11.918Z,94510.66
2024-04-16T22:00:44.086Z,94509.13
2024-04-16T22:03:16.384Z,94517.97
2024-04-16T22:05:48.401Z,94514.41
2024-04-16T22:08:20.887Z,94513.97
2024-04-16T22:11:03.481Z,94513.59
2024-04-16T22:13:35.495Z,94520.59
2024-04-16T22:16:08.026Z,94518.75
2024-04-16T22:18:40.346Z,94507.03
2024-04-16T22:21:12.394Z,94521.97
2024-04-16T22:23:44.595Z,94525.41
2024-04-16T22:26:16.805Z,94531.09
2024-04-16T22:28:49.102Z,94531.94
2024-04-16T22:31:21.137Z,94533.09
2024-04-16T22:33:53.327Z,94542.41
2024-04-16T22:36:25.587Z,94537.34
2024-04-16T22:38:58.039Z,94536.25
2024-04-16T22:41:30.265Z,94528.16
2024-04-16T22:44:02.542Z,94541.94
2024-04-16T22:46:35.929Z,94543.63
2024-04-16T22:49:08.188Z,94548.38
2024-04-16T22:51:40.354Z,94557.94
2024-04-16T22:54:12.517Z,94560.81
2024-04-16T22:56:46.520Z,94560.88
2024-04-16T22:59:19.975Z,94564.06
2024-04-16T23:01:53.175Z,94557.41
2024-04-16T23:04:25.484Z,94569.16
2024-04-16T23:06:57.510Z,94573.06
2024-04-16T23:09:29.653Z,94562.94
2024-04-16T23:12:01.823Z,94559.25
2024-04-16T23:14:34.006Z,94563.28
2024-04-16T23:17:06.674Z,94560.38
2024-04-16T23:19:38.854Z,94561.25
2024-04-16T23:22:12.216Z,94557.94
2024-04-16T23:24:47.613Z,94558.50
2024-04-16T23:27:19.765Z,94559.13
2024-04-16T23:29:51.916Z,94559.75
2024-04-16T23:32:24.208Z,94555.66
2024-04-16T23:34:57.043Z,94561.97
2024-04-16T23:37:29.373Z,94559.56
2024-04-16T23:40:01.623Z,94555.13
2024-04-16T23:42:33.871Z,94552.34
2024-04-16T23:45:06.411Z,94549.13
2024-04-16T23:47:38.605Z,94553.53
2024-04-16T23:50:10.875Z,94552.56
2024-04-16T23:52:43.294Z,94557.28
2024-04-16T23:55:15.563Z,94551.66
2024-04-16T23:57:48.766Z,94549.81
